createdAt,value
2023-09-20T00:01:35.577Z,2.17
2023-09-20T00:04:21.998Z,1.48
2023-09-20T00:07:08.556Z,1.85
2023-09-20T00:09:54.175Z,1.48
2023-09-20T00:12:41.737Z,2.05
2023-09-20T00:15:27.142Z,2.08
2023-09-20T00:18:12.815Z,2.30
2023-09-20T00:21:02.600Z,1.38
2023-09-20T00:23:48.210Z,1.80
2023-09-20T00:26:35.129Z,1.95
2023-09-20T00:29:20.575Z,1.85
2023-09-20T00:32:06.435Z,1.60
2023-09-20T00:34:52.420Z,1.52
2023-09-20T00:37:48.288Z,1.73
2023-09-20T00:40:36.360Z,1.98
2023-09-20T00:43:25.750Z,1.73
2023-09-20T00:46:12.775Z,1.33
2023-09-20T00:48:58.928Z,1.40
2023-09-20T00:51:48.459Z,1.67
2023-09-20T00:54:34.600Z,1.85
2023-09-20T00:57:20.664Z,1.73
2023-09-20T01:00:21.101Z,1.30
2023-09-20T01:03:07.111Z,1.60
2023-09-20T01:05:53.025Z,2.22
2023-09-20T01:08:38.738Z,1.73
2023-09-20T01:11:24.696Z,1.60
2023-09-20T01:14:10.426Z,1.95
2023-09-20T01:16:55.815Z,1.90
2023-09-20T01:19:41.579Z,1.70
2023-09-20T01:22:28.217Z,1.92
2023-09-20T01:25:23.848Z,2.00
2023-09-20T01:28:11.400Z,1.10
2023-09-20T01:30:59.490Z,1.77
2023-09-20T01:33:44.836Z,1.92
2023-09-20T01:36:30.594Z,1.77
2023-09-20T01:39:17.820Z,1.20
2023-09-20T01:42:05.562Z,1.08
2023-09-20T01:47:39.303Z,1.30
2023-09-20T01:50:25.811Z,1.48
2023-09-20T01:53:12.911Z,1.50
2023-09-20T01:55:59.100Z,1.95
2023-09-20T01:58:45.792Z,1.70
2023-09-20T02:01:31.308Z,1.27
2023-09-20T02:04:16.659Z,1.20
2023-09-20T02:07:01.994Z,1.90
2023-09-20T02:09:47.467Z,1.25
2023-09-20T02:12:35.555Z,1.20
2023-09-20T02:15:31.428Z,1.65
2023-09-20T02:18:17.362Z,1.55
2023-09-20T02:21:03.620Z,1.65
2023-09-20T02:23:49.233Z,1.83
2023-09-20T02:26:34.964Z,2.08
2023-09-20T02:29:24.203Z,1.85
2023-09-20T02:32:09.660Z,1.23
2023-09-20T02:34:55.112Z,1.30
2023-09-20T02:37:44.887Z,1.00
2023-09-20T02:40:30.400Z,1.75
2023-09-20T02:43:17.800Z,2.00
2023-09-20T02:46:06.899Z,1.40
2023-09-20T02:48:53.833Z,1.75
2023-09-20T02:51:39.623Z,1.35
2023-09-20T02:54:25.508Z,1.67
2023-09-20T02:57:12.378Z,1.85
2023-09-20T02:59:59.544Z,1.47
2023-09-20T03:02:48.339Z,1.63
2023-09-20T03:08:26.019Z,2.13
2023-09-20T03:11:21.200Z,1.70
2023-09-20T03:14:09.346Z,1.23
2023-09-20T03:16:55.333Z,1.23
2023-09-20T03:19:41.210Z,2.10
2023-09-20T03:22:26.868Z,1.38
2023-09-20T03:25:15.252Z,1.15
2023-09-20T03:28:01.424Z,1.33
2023-09-20T03:30:46.935Z,2.20
2023-09-20T03:33:33.067Z,1.42
2023-09-20T03:36:19.353Z,1.38
2023-09-20T03:39:07.648Z,1.10
2023-09-20T03:41:53.383Z,1.27
2023-09-20T03:44:40.379Z,1.77
2023-09-20T03:47:29.292Z,2.60
2023-09-20T03:50:19.340Z,1.90
2023-09-20T03:53:06.024Z,1.60
2023-09-20T03:55:51.976Z,1.70
2023-09-20T03:58:39.900Z,1.27
2023-09-20T04:01:25.681Z,1.80
2023-09-20T04:04:11.078Z,1.35
2023-09-20T04:06:56.418Z,1.65
2023-09-20T04:09:42.669Z,1.50
2023-09-20T04:12:28.649Z,1.75
2023-09-20T04:15:15.708Z,1.60
2023-09-20T04:18:09.795Z,2.10
2023-09-20T04:20:55.465Z,1.17
2023-09-20T04:23:41.020Z,1.45
2023-09-20T04:26:27.019Z,1.75
2023-09-20T04:29:13.115Z,1.60
2023-09-20T04:31:59.394Z,1.95
2023-09-20T04:34:46.420Z,1.50
2023-09-20T04:37:32.503Z,2.00
2023-09-20T04:40:18.104Z,0.82
2023-09-20T04:43:04.274Z,1.35
2023-09-20T04:45:50.433Z,1.65
2023-09-20T04:48:35.883Z,1.45
2023-09-20T04:51:22.348Z,1.40
2023-09-20T04:54:09.177Z,1.52
2023-09-20T04:56:54.822Z,2.77
2023-09-20T04:59:41.189Z,1.50
2023-09-20T05:02:26.954Z,1.88
2023-09-20T05:05:13.609Z,1.90
2023-09-20T05:07:59.262Z,2.25
2023-09-20T05:10:46.047Z,1.60
2023-09-20T05:13:31.981Z,1.60
2023-09-20T05:16:17.846Z,1.67
2023-09-20T05:19:04.410Z,1.75
2023-09-20T05:21:50.373Z,1.50
2023-09-20T05:24:36.151Z,1.70
2023-09-20T05:27:22.546Z,2.72
2023-09-20T05:30:09.614Z,2.70
2023-09-20T05:32:56.074Z,2.83
2023-09-20T05:35:41.892Z,3.08
2023-09-20T05:38:27.939Z,3.47
2023-09-20T05:41:14.092Z,2.33
2023-09-20T05:43:59.770Z,2.60
2023-09-20T05:46:45.386Z,2.80
2023-09-20T05:49:30.976Z,2.70
2023-09-20T05:52:16.853Z,3.30
2023-09-20T05:55:03.799Z,3.00
2023-09-20T05:57:49.425Z,3.13
2023-09-20T06:00:36.435Z,3.30
2023-09-20T06:03:22.821Z,3.15
2023-09-20T06:06:09.376Z,4.60
2023-09-20T06:08:54.705Z,4.03
2023-09-20T06:11:40.150Z,4.13
2023-09-20T06:14:26.011Z,4.03
2023-09-20T06:17:11.792Z,3.50
2023-09-20T06:20:00.157Z,3.92
2023-09-20T06:22:48.045Z,3.90
2023-09-20T06:25:35.411Z,2.88
2023-09-20T06:28:20.942Z,3.53
2023-09-20T06:31:06.741Z,3.03
2023-09-20T06:33:52.613Z,3.33
2023-09-20T06:36:38.412Z,3.20
2023-09-20T06:39:27.065Z,2.95
2023-09-20T06:42:12.467Z,3.17
2023-09-20T06:44:58.270Z,3.17
2023-09-20T06:47:44.901Z,3.65
2023-09-20T06:50:32.041Z,2.90
2023-09-20T06:53:18.690Z,3.78
2023-09-20T06:56:04.739Z,3.05
2023-09-20T06:58:51.325Z,3.22
2023-09-20T07:01:36.943Z,3.75
2023-09-20T07:04:23.112Z,3.55
2023-09-20T07:07:09.100Z,2.97
2023-09-20T07:09:54.856Z,3.70
2023-09-20T07:12:42.091Z,4.18
2023-09-20T07:15:29.305Z,3.25
2023-09-20T07:18:15.326Z,3.22
2023-09-20T07:21:01.392Z,3.10
2023-09-20T07:23:47.017Z,3.50
2023-09-20T07:26:34.061Z,3.10
2023-09-20T07:29:19.907Z,2.55
2023-09-20T07:32:05.647Z,1.80
2023-09-20T07:34:59.048Z,1.90
2023-09-20T07:37:45.268Z,1.80
2023-09-20T07:40:32.339Z,2.42
2023-09-20T07:43:28.615Z,2.75
2023-09-20T07:46:16.751Z,1.55
2023-09-20T07:49:10.422Z,1.90
2023-09-20T07:51:55.801Z,1.75
2023-09-20T07:54:41.335Z,1.92
2023-09-20T07:57:29.453Z,1.88
2023-09-20T08:00:16.679Z,2.22
2023-09-20T08:03:02.642Z,2.03
2023-09-20T08:05:50.382Z,1.92
2023-09-20T08:08:37.975Z,1.65
2023-09-20T08:11:24.016Z,2.55
2023-09-20T08:14:09.986Z,1.55
2023-09-20T08:17:14.129Z,1.40
2023-09-20T08:19:59.602Z,1.52
2023-09-20T08:23:05.063Z,1.60
2023-09-20T08:26:11.327Z,1.73
2023-09-20T08:29:15.592Z,1.75
2023-09-20T08:32:19.519Z,1.10
2023-09-20T08:35:24.146Z,1.45
2023-09-20T08:38:28.056Z,1.30
2023-09-20T08:41:32.167Z,1.20
2023-09-20T08:44:36.201Z,1.65
2023-09-20T08:47:41.317Z,1.67
2023-09-20T08:50:47.267Z,2.35
2023-09-20T08:53:51.708Z,1.17
2023-09-20T08:56:59.318Z,1.27
2023-09-20T08:59:52.295Z,1.60
2023-09-20T09:02:39.145Z,1.48
2023-09-20T09:05:28.916Z,1.13
2023-09-20T09:08:14.729Z,0.85
2023-09-20T09:11:00.323Z,1.05
2023-09-20T09:13:45.807Z,1.10
2023-09-20T09:16:34.378Z,1.00
2023-09-20T09:19:19.957Z,0.90
2023-09-20T09:22:07.170Z,1.05
2023-09-20T09:24:54.927Z,0.80
2023-09-20T09:27:41.865Z,1.23
2023-09-20T09:30:27.673Z,0.95
2023-09-20T09:33:15.261Z,1.08
2023-09-20T09:36:00.858Z,1.23
2023-09-20T09:38:46.343Z,1.10
2023-09-20T09:41:42.820Z,0.90
2023-09-20T09:44:28.340Z,1.00
2023-09-20T09:47:14.936Z,0.80
2023-09-20T09:50:02.623Z,0.90
2023-09-20T09:52:52.034Z,1.10
2023-09-20T09:55:40.475Z,0.90
2023-09-20T09:58:25.978Z,0.93
2023-09-20T10:01:12.467Z,1.20
2023-09-20T10:04:01.638Z,1.10
2023-09-20T10:07:17.612Z,1.23
2023-09-20T10:10:14.688Z,1.00
2023-09-20T10:13:04.274Z,0.73
2023-09-20T10:15:52.243Z,0.95
2023-09-20T10:19:01.625Z,0.90
2023-09-20T10:22:09.361Z,0.93
2023-09-20T10:24:59.684Z,1.02
2023-09-20T10:27:45.274Z,1.00
2023-09-20T10:30:35.503Z,0.82
2023-09-20T10:33:42.452Z,1.10
2023-09-20T10:36:32.247Z,0.73
2023-09-20T10:39:20.861Z,0.93
2023-09-20T10:42:14.040Z,1.30
2023-09-20T10:45:06.523Z,0.95
2023-09-20T10:47:54.000Z,0.77
2023-09-20T10:50:59.217Z,1.00
2023-09-20T10:53:45.557Z,0.90
2023-09-20T10:56:52.857Z,0.90
2023-09-20T10:59:40.206Z,1.45
2023-09-20T11:02:26.898Z,1.13
2023-09-20T11:05:12.794Z,0.85
2023-09-20T11:08:04.539Z,0.82
2023-09-20T11:10:50.336Z,0.93
2023-09-20T11:13:35.794Z,1.00
2023-09-20T11:16:23.134Z,1.10
2023-09-20T11:19:10.517Z,1.10
2023-09-20T11:21:58.294Z,0.75
2023-09-20T11:24:44.221Z,1.00
2023-09-20T11:27:29.658Z,1.20
2023-09-20T11:30:15.273Z,0.80
2023-09-20T11:33:01.777Z,1.08
2023-09-20T11:35:50.662Z,1.30
2023-09-20T11:38:37.335Z,1.02
2023-09-20T11:41:25.248Z,1.48
2023-09-20T11:46:59.551Z,1.00
2023-09-20T11:49:45.187Z,1.10
2023-09-20T11:52:30.912Z,1.00
2023-09-20T11:55:17.755Z,1.10
2023-09-20T11:58:03.275Z,1.08
2023-09-20T12:00:48.847Z,0.98
2023-09-20T12:03:35.256Z,1.25
2023-09-20T12:06:20.878Z,1.10
2023-09-20T12:09:06.506Z,1.00
2023-09-20T12:11:52.694Z,1.00
2023-09-20T12:14:41.374Z,0.90
2023-09-20T12:17:28.138Z,1.00
2023-09-20T12:20:14.079Z,1.20
2023-09-20T12:23:03.482Z,0.80
2023-09-20T12:25:49.050Z,1.00
2023-09-20T12:28:37.436Z,1.30
2023-09-20T12:31:25.017Z,1.25
2023-09-20T12:34:11.298Z,1.00
2023-09-20T12:36:58.167Z,1.10
2023-09-20T12:39:43.697Z,1.10
2023-09-20T12:42:28.962Z,0.90
2023-09-20T12:45:15.975Z,1.10
2023-09-20T12:48:01.662Z,1.35
2023-09-20T12:50:47.894Z,1.13
2023-09-20T12:53:33.847Z,1.00
2023-09-20T12:56:19.739Z,1.35
2023-09-20T12:59:05.320Z,1.00
2023-09-20T13:01:50.909Z,1.02
2023-09-20T13:04:36.368Z,1.20
2023-09-20T13:07:22.961Z,1.88
2023-09-20T13:10:15.050Z,0.98
2023-09-20T13:13:09.491Z,1.00
2023-09-20T13:15:55.226Z,1.02
2023-09-20T13:18:40.979Z,1.25
2023-09-20T13:21:26.494Z,1.00
2023-09-20T13:24:12.676Z,0.80
2023-09-20T13:26:58.455Z,1.17
2023-09-20T13:29:44.138Z,1.00
2023-09-20T13:32:29.482Z,1.02
2023-09-20T13:35:18.169Z,0.70
2023-09-20T13:38:06.096Z,0.90
2023-09-20T13:40:52.455Z,1.10
2023-09-20T13:43:38.259Z,1.10
2023-09-20T13:46:26.700Z,1.15
2023-09-20T13:49:14.067Z,0.98
2023-09-20T13:54:47.805Z,1.27
2023-09-20T13:57:37.982Z,0.80
2023-09-20T14:00:29.011Z,1.23
2023-09-20T14:03:16.494Z,1.10
2023-09-20T14:06:03.192Z,1.17
2023-09-20T14:08:49.705Z,0.90
2023-09-20T14:11:36.561Z,0.80
2023-09-20T14:14:28.087Z,1.00
2023-09-20T14:17:15.896Z,1.00
2023-09-20T14:20:10.445Z,1.15
2023-09-20T14:22:56.881Z,1.15
2023-09-20T14:25:42.216Z,1.50
2023-09-20T14:28:27.680Z,1.40
2023-09-20T14:31:18.148Z,0.80
2023-09-20T14:34:03.700Z,1.00
2023-09-20T14:36:49.126Z,1.10
2023-09-20T14:39:35.195Z,1.23
2023-09-20T14:42:20.541Z,0.88
2023-09-20T14:45:06.541Z,1.00
2023-09-20T14:47:53.399Z,1.03
2023-09-20T14:53:26.407Z,0.85
2023-09-20T14:56:12.725Z,1.15
2023-09-20T14:58:58.430Z,1.20
2023-09-20T15:01:44.107Z,0.98
2023-09-20T15:04:32.591Z,0.90
2023-09-20T15:07:17.934Z,1.13
2023-09-20T15:10:04.535Z,0.80
2023-09-20T15:12:58.571Z,1.00
2023-09-20T15:15:46.520Z,0.90
2023-09-20T15:18:32.302Z,1.00
2023-09-20T15:21:18.076Z,1.15
2023-09-20T15:24:03.593Z,0.80
2023-09-20T15:26:48.946Z,0.80
2023-09-20T15:29:34.590Z,1.00
2023-09-20T15:32:20.983Z,1.10
2023-09-20T15:35:10.448Z,1.17
2023-09-20T15:37:57.013Z,0.88
2023-09-20T15:40:44.517Z,0.80
2023-09-20T15:43:37.487Z,1.10
2023-09-20T15:46:23.016Z,1.23
2023-09-20T15:49:08.334Z,0.88
2023-09-20T15:51:54.018Z,1.13
2023-09-20T15:54:40.234Z,1.30
2023-09-20T15:57:27.770Z,1.00
2023-09-20T16:00:17.554Z,1.00
2023-09-20T16:03:04.367Z,1.00
2023-09-20T16:05:51.869Z,1.40
2023-09-20T16:08:37.647Z,1.00
2023-09-20T16:11:23.349Z,1.10
2023-09-20T16:14:09.078Z,1.10
2023-09-20T16:16:55.703Z,0.93
2023-09-20T16:19:43.114Z,1.10
2023-09-20T16:22:28.796Z,1.00
2023-09-20T16:25:15.151Z,1.15
2023-09-20T16:28:00.451Z,0.82
2023-09-20T16:30:47.148Z,0.98
2023-09-20T16:33:32.774Z,0.80
2023-09-20T16:36:18.358Z,0.95
2023-09-20T16:39:04.039Z,1.10
2023-09-20T16:41:50.305Z,0.85
2023-09-20T16:44:36.161Z,0.90
2023-09-20T16:47:21.637Z,1.38
2023-09-20T16:50:07.595Z,1.00
2023-09-20T16:52:53.313Z,1.30
2023-09-20T16:55:38.866Z,1.00
2023-09-20T16:58:24.353Z,1.40
2023-09-20T17:01:14.411Z,1.20
2023-09-20T17:04:00.908Z,1.17
2023-09-20T17:06:47.202Z,0.95
2023-09-20T17:09:33.399Z,1.33
2023-09-20T17:12:18.750Z,1.30
2023-09-20T17:15:05.280Z,1.20
2023-09-20T17:17:51.090Z,1.23
2023-09-20T17:20:36.913Z,1.20
2023-09-20T17:23:22.846Z,1.30
2023-09-20T17:26:10.720Z,1.33
2023-09-20T17:28:56.641Z,1.25
2023-09-20T17:31:42.064Z,1.42
2023-09-20T17:34:27.619Z,1.40
2023-09-20T17:37:13.359Z,1.40
2023-09-20T17:39:59.115Z,1.30
2023-09-20T17:42:44.866Z,1.33
2023-09-20T17:45:30.413Z,1.67
2023-09-20T17:48:16.213Z,2.10
2023-09-20T17:51:01.837Z,1.83
2023-09-20T17:53:47.751Z,2.00
2023-09-20T17:56:33.484Z,2.38
2023-09-20T17:59:21.058Z,1.80
2023-09-20T18:02:07.696Z,1.70
2023-09-20T18:04:53.262Z,2.97
2023-09-20T18:07:38.722Z,2.50
2023-09-20T18:10:25.395Z,2.10
2023-09-20T18:13:11.149Z,2.72
2023-09-20T18:15:56.610Z,2.08
2023-09-20T18:18:42.970Z,2.08
2023-09-20T18:21:31.139Z,1.73
2023-09-20T18:24:16.570Z,5.15
2023-09-20T18:27:01.922Z,2.72
2023-09-20T18:29:47.357Z,2.03
2023-09-20T18:32:32.999Z,1.85
2023-09-20T18:35:18.619Z,1.85
2023-09-20T18:38:05.048Z,1.70
2023-09-20T18:40:51.248Z,1.50
2023-09-20T18:43:37.071Z,1.30
2023-09-20T18:46:26.809Z,1.58
2023-09-20T18:49:14.917Z,1.42
2023-09-20T18:52:01.848Z,1.58
2023-09-20T18:54:48.576Z,1.50
2023-09-20T18:57:34.348Z,1.55
2023-09-20T19:00:24.339Z,1.77
2023-09-20T19:03:17.142Z,1.77
2023-09-20T19:06:03.023Z,1.45
2023-09-20T19:08:54.322Z,1.77
2023-09-20T19:11:40.714Z,1.60
2023-09-20T19:14:27.165Z,1.50
2023-09-20T19:17:14.179Z,1.90
2023-09-20T19:20:01.487Z,1.70
2023-09-20T19:22:47.443Z,1.75
2023-09-20T19:25:33.937Z,1.70
2023-09-20T19:28:20.688Z,1.52
2023-09-20T19:31:07.171Z,2.03
2023-09-20T19:33:53.541Z,1.15
2023-09-20T19:36:41.270Z,1.80
2023-09-20T19:39:26.838Z,1.80
2023-09-20T19:42:13.232Z,1.42
2023-09-20T19:44:58.799Z,1.95
2023-09-20T19:47:45.715Z,1.73
2023-09-20T19:50:34.926Z,1.65
2023-09-20T19:53:20.835Z,1.58
2023-09-20T19:56:07.593Z,1.83
2023-09-20T19:58:53.293Z,1.88
2023-09-20T20:01:40.483Z,1.92
2023-09-20T20:04:27.164Z,1.60
2023-09-20T20:07:26.854Z,1.83
2023-09-20T20:10:13.181Z,1.70
2023-09-20T20:12:59.261Z,1.42
2023-09-20T20:15:44.976Z,1.50
2023-09-20T20:18:30.993Z,1.63
2023-09-20T20:21:18.532Z,1.77
2023-09-20T20:24:05.197Z,1.60
2023-09-20T20:26:51.110Z,2.10
2023-09-20T20:29:36.544Z,1.95
2023-09-20T20:32:22.068Z,1.55
2023-09-20T20:35:09.862Z,1.77
2023-09-20T20:37:56.575Z,1.83
2023-09-20T20:40:43.760Z,1.95
2023-09-20T20:43:31.176Z,1.80
2023-09-20T20:46:17.599Z,1.85
2023-09-20T20:49:03.739Z,2.03
2023-09-20T20:51:49.212Z,1.70
2023-09-20T20:54:34.481Z,1.73
2023-09-20T20:57:20.095Z,1.70
2023-09-20T21:00:13.917Z,2.22
2023-09-20T21:03:11.466Z,1.98
2023-09-20T21:05:57.175Z,2.15
2023-09-20T21:08:48.446Z,1.80
2023-09-20T21:11:34.659Z,1.80
2023-09-20T21:14:20.632Z,1.70
2023-09-20T21:17:06.189Z,1.77
2023-09-20T21:19:53.989Z,1.88
2023-09-20T21:22:39.525Z,2.25
2023-09-20T21:25:27.400Z,2.22
2023-09-20T21:28:12.928Z,1.55
2023-09-20T21:30:58.527Z,2.40
2023-09-20T21:33:45.073Z,1.98
2023-09-20T21:36:31.096Z,2.22
2023-09-20T21:39:16.883Z,1.92
2023-09-20T21:42:02.190Z,2.08
2023-09-20T21:44:47.628Z,2.35
2023-09-20T21:47:33.322Z,1.73
2023-09-20T21:50:20.745Z,2.17
2023-09-20T21:55:52.073Z,1.60
2023-09-20T21:58:37.585Z,2.00
2023-09-20T22:01:23.175Z,1.95
2023-09-20T22:04:08.631Z,1.70
2023-09-20T22:06:54.103Z,2.20
2023-09-20T22:09:40.454Z,1.77
2023-09-20T22:12:29.475Z,1.83
2023-09-20T22:15:19.801Z,1.45
2023-09-20T22:18:19.171Z,1.45
2023-09-20T22:21:09.300Z,1.90
2023-09-20T22:23:55.105Z,1.85
2023-09-20T22:26:41.228Z,1.80
2023-09-20T22:29:26.721Z,1.88
2023-09-20T22:32:12.140Z,2.08
2023-09-20T22:34:58.317Z,1.60
2023-09-20T22:37:53.524Z,2.08
2023-09-20T22:40:39.730Z,1.90
2023-09-20T22:43:26.075Z,1.70
2023-09-20T22:46:11.959Z,1.70
2023-09-20T22:48:58.418Z,2.28
2023-09-20T22:51:45.585Z,1.60
2023-09-20T22:54:30.881Z,1.67
2023-09-20T22:57:23.769Z,1.95
2023-09-20T23:00:22.857Z,1.83
2023-09-20T23:03:10.948Z,1.60
2023-09-20T23:05:56.724Z,1.90
2023-09-20T23:08:42.683Z,1.65
2023-09-20T23:11:28.646Z,2.15
2023-09-20T23:14:15.731Z,2.00
2023-09-20T23:17:16.332Z,1.63
2023-09-20T23:20:20.848Z,1.77
2023-09-20T23:23:07.854Z,1.35
2023-09-20T23:25:54.908Z,1.73
2023-09-20T23:28:40.646Z,1.95
2023-09-20T23:31:28.738Z,1.88
2023-09-20T23:34:18.633Z,1.85
2023-09-20T23:37:13.646Z,1.70
2023-09-20T23:40:00.770Z,1.23
2023-09-20T23:42:48.094Z,2.05
2023-09-20T23:45:34.195Z,1.88
2023-09-20T23:48:19.890Z,1.50
2023-09-20T23:51:09.305Z,1.73
2023-09-20T23:53:54.930Z,2.20
2023-09-20T23:56:42.833Z,2.35
2023-09-20T23:59:28.505Z,1.60
